Time;durP1;ratioP1;P1;durP2;ratioP2;P2;SDS_P1;SDS_P2;PMS_P1;PMS_P2;Temp;Humidity;BMP_temperature;BMP_pressure;BME280_temperature;BME280_humidity;BME280_pressure;Samples;Min_cycle;Max_cycle;Signal;HPM_P1;HPM_P2
2023/05/16 00:00:20;;;;;;;14.60;9.80;;;12.60;99.90;;;;;;5096428;28;20026;-73
2023/05/16 00:02:46;;;;;;;14.32;10.07;;;12.50;99.90;;;;;;5097275;28;20070;-73
2023/05/16 00:05:14;;;;;;;14.70;9.57;;;12.50;99.90;;;;;;5096311;28;20031;-73
2023/05/16 00:07:43;;;;;;;16.63;10.88;;;12.50;99.90;;;;;;5097096;28;20032;-73
2023/05/16 00:10:09;;;;;;;19.73;11.25;;;12.50;99.90;;;;;;5096476;28;20076;-73
2023/05/16 00:12:37;;;;;;;22.33;11.80;;;12.50;99.90;;;;;;5097177;28;20050;-73
2023/05/16 00:15:05;;;;;;;20.67;11.55;;;12.50;99.90;;;;;;5096557;28;20039;-70
2023/05/16 00:17:31;;;;;;;22.52;12.57;;;12.60;99.90;;;;;;5097038;28;20115;-71
2023/05/16 00:19:57;;;;;;;23.08;12.75;;;12.60;99.90;;;;;;5096164;28;20119;-70
2023/05/16 00:22:26;;;;;;;18.42;11.45;;;12.60;99.90;;;;;;5096218;28;20087;-70
2023/05/16 00:24:52;;;;;;;18.08;9.90;;;12.60;99.90;;;;;;5096302;28;20055;-70
2023/05/16 00:27:17;;;;;;;12.45;8.60;;;12.40;99.90;;;;;;5096056;28;20078;-70
2023/05/16 00:29:43;;;;;;;19.17;7.13;;;12.30;99.90;;;;;;5096138;28;20024;-73
2023/05/16 00:32:08;;;;;;;10.88;7.43;;;12.10;99.90;;;;;;5096746;28;20032;-73
2023/05/16 00:34:34;;;;;;;12.60;8.02;;;12.00;99.90;;;;;;5097074;28;20016;-73
2023/05/16 00:37:00;;;;;;;13.30;7.80;;;11.90;99.90;;;;;;5095985;28;20024;-73
2023/05/16 00:39:26;;;;;;;12.77;7.60;;;11.90;99.90;;;;;;5096894;28;20103;-74
2023/05/16 00:41:51;;;;;;;13.80;8.20;;;11.90;99.90;;;;;;5095963;28;20027;-73
2023/05/16 00:44:17;;;;;;;11.55;7.53;;;11.90;99.90;;;;;;5095802;28;20114;-73
2023/05/16 00:46:43;;;;;;;17.10;8.38;;;11.90;99.90;;;;;;5095928;28;20097;-73
2023/05/16 00:49:09;;;;;;;12.02;7.55;;;12.00;99.90;;;;;;5100009;28;20035;-73
2023/05/16 00:51:37;;;;;;;18.58;8.15;;;12.00;99.90;;;;;;5100857;28;20073;-73
2023/05/16 00:54:03;;;;;;;17.05;8.75;;;12.10;99.90;;;;;;5100054;28;20016;-73
2023/05/16 00:56:28;;;;;;;10.55;7.70;;;12.10;99.90;;;;;;5099714;28;20054;-74
2023/05/16 00:58:54;;;;;;;15.88;8.10;;;12.10;99.90;;;;;;5099728;28;20026;-73
2023/05/16 01:01:23;;;;;;;14.68;9.13;;;12.00;99.90;;;;;;5099711;28;20027;-73
2023/05/16 01:03:49;;;;;;;15.27;8.82;;;12.00;99.90;;;;;;5100280;28;20024;-73
2023/05/16 01:06:15;;;;;;;23.58;9.18;;;12.00;99.90;;;;;;5099570;28;20047;-74
2023/05/16 01:08:41;;;;;;;14.10;8.73;;;11.90;99.90;;;;;;5099659;28;20031;-73
2023/05/16 01:11:21;;;;;;;14.77;7.95;;;11.80;99.90;;;;;;5099414;28;20020;-73
2023/05/16 01:13:46;;;;;;;14.07;7.57;;;11.80;99.90;;;;;;5100091;28;20031;-73
2023/05/16 01:16:45;;;;;;;19.58;7.95;;;11.80;99.90;;;;;;5099260;28;20024;-73
2023/05/16 01:19:45;;;;;;;16.02;9.05;;;11.90;99.90;;;;;;5099531;28;20045;-73
2023/05/16 01:22:15;;;;;;;19.17;11.30;;;12.00;99.90;;;;;;5100026;28;20081;-73
2023/05/16 01:24:59;;;;;;;17.88;10.23;;;12.10;99.90;;;;;;5100277;28;20039;-73
2023/05/16 01:27:26;;;;;;;18.75;10.30;;;12.20;99.90;;;;;;5098980;28;20030;-73
2023/05/16 01:29:55;;;;;;;23.77;11.13;;;12.30;99.90;;;;;;5099577;28;20028;-73
2023/05/16 01:32:21;;;;;;;25.60;12.60;;;12.40;99.90;;;;;;5098800;28;20142;-73
2023/05/16 01:34:50;;;;;;;18.58;10.07;;;12.50;99.90;;;;;;5099935;28;20054;-74
2023/05/16 01:37:30;;;;;;;22.73;11.05;;;12.60;99.90;;;;;;5099022;28;20038;-74
2023/05/16 01:40:06;;;;;;;25.25;11.43;;;12.70;99.90;;;;;;5098983;28;20024;-71
2023/05/16 01:42:35;;;;;;;20.15;11.38;;;12.80;99.90;;;;;;5098989;28;20024;-73
2023/05/16 01:45:22;;;;;;;19.40;10.75;;;12.80;99.90;;;;;;5099792;28;20020;-71
2023/05/16 01:47:57;;;;;;;18.27;9.55;;;12.70;99.90;;;;;;5099866;28;20031;-73
2023/05/16 01:50:27;;;;;;;12.45;7.85;;;12.60;99.90;;;;;;5098783;28;20032;-73
2023/05/16 01:52:59;;;;;;;15.25;7.28;;;12.40;99.90;;;;;;5098972;28;20032;-73
2023/05/16 01:55:36;;;;;;;14.60;7.32;;;12.00;99.90;;;;;;5098719;28;20019;-73
2023/05/16 01:58:03;;;;;;;10.88;6.95;;;12.00;99.90;;;;;;5099296;28;20024;-73
2023/05/16 02:00:30;;;;;;;15.32;7.68;;;12.10;99.90;;;;;;5097811;28;20027;-73
2023/05/16 02:02:56;;;;;;;11.02;6.93;;;12.10;99.90;;;;;;5098779;28;20115;-73
2023/05/16 02:05:21;;;;;;;14.00;8.82;;;12.10;99.90;;;;;;5098612;28;20048;-70
2023/05/16 02:07:47;;;;;;;14.40;8.35;;;12.20;99.90;;;;;;5098888;28;20028;-70
2023/05/16 02:10:13;;;;;;;15.18;9.25;;;12.20;99.90;;;;;;5099152;28;20024;-70
2023/05/16 02:12:39;;;;;;;14.82;9.50;;;12.30;99.90;;;;;;5098127;28;20042;-70
2023/05/16 02:15:05;;;;;;;17.83;9.68;;;12.50;99.90;;;;;;5098179;28;20059;-71
2023/05/16 02:17:30;;;;;;;20.25;9.95;;;12.50;99.90;;;;;;5098977;28;20024;-71
2023/05/16 02:19:56;;;;;;;22.83;12.73;;;12.60;99.90;;;;;;5098035;28;20017;-71
2023/05/16 02:22:22;;;;;;;19.05;10.07;;;12.70;99.90;;;;;;5098063;28;20017;-71
2023/05/16 02:24:47;;;;;;;19.75;10.63;;;12.80;99.90;;;;;;5098843;28;20028;-71
2023/05/16 02:27:13;;;;;;;20.98;11.63;;;12.90;99.90;;;;;;5098401;28;20024;-71
2023/05/16 02:29:38;;;;;;;18.23;9.85;;;12.90;99.90;;;;;;5098867;28;20028;-70
2023/05/16 02:32:04;;;;;;;18.27;10.05;;;12.90;99.90;;;;;;5098031;28;20020;-73
2023/05/16 02:34:30;;;;;;;15.52;8.20;;;13.00;99.90;;;;;;5097855;28;20107;-73
2023/05/16 02:36:55;;;;;;;31.50;15.43;;;13.00;99.90;;;;;;5098958;28;20178;-73
2023/05/16 02:39:21;;;;;;;14.05;8.95;;;12.80;99.90;;;;;;5097734;28;20069;-74
2023/05/16 02:41:46;;;;;;;11.98;8.18;;;12.60;99.90;;;;;;5097960;28;20182;-73
2023/05/16 02:44:12;;;;;;;16.15;8.98;;;12.50;99.90;;;;;;5097811;28;20063;-73
2023/05/16 02:46:38;;;;;;;19.98;8.07;;;12.50;99.90;;;;;;5097589;28;20111;-73
2023/05/16 02:49:03;;;;;;;14.50;8.57;;;12.40;99.90;;;;;;5097341;28;20135;-71
2023/05/16 02:51:29;;;;;;;14.73;8.90;;;12.50;99.90;;;;;;5098680;28;20051;-70
2023/05/16 02:54:01;;;;;;;16.23;8.68;;;12.50;99.90;;;;;;5097290;28;20027;-71
2023/05/16 02:56:27;;;;;;;17.75;8.73;;;12.60;99.90;;;;;;5097425;28;20016;-71
2023/05/16 02:58:53;;;;;;;19.10;9.90;;;12.70;99.90;;;;;;5097860;28;20031;-71
2023/05/16 03:01:19;;;;;;;17.38;10.18;;;12.80;99.90;;;;;;5097564;28;20058;-71
2023/05/16 03:03:44;;;;;;;16.98;9.80;;;12.80;99.90;;;;;;5097170;28;20032;-71
2023/05/16 03:06:10;;;;;;;16.80;9.60;;;12.90;99.90;;;;;;5098021;28;20020;-70
2023/05/16 03:08:36;;;;;;;15.43;8.00;;;12.90;99.90;;;;;;5098167;28;20032;-73
2023/05/16 03:11:01;;;;;;;18.98;9.30;;;12.80;99.90;;;;;;5096297;28;20035;-73
2023/05/16 03:13:28;;;;;;;14.98;8.65;;;12.70;99.90;;;;;;5096928;28;20039;-70
2023/05/16 03:15:54;;;;;;;14.13;8.02;;;12.70;99.90;;;;;;5098217;28;20028;-71
2023/05/16 03:18:20;;;;;;;16.05;8.13;;;12.70;99.90;;;;;;5096930;28;20024;-71
2023/05/16 03:20:46;;;;;;;12.98;8.10;;;12.70;99.90;;;;;;5096977;28;20024;-71
2023/05/16 03:23:11;;;;;;;20.27;10.27;;;12.90;99.90;;;;;;5097320;28;20016;-71
2023/05/16 03:25:37;;;;;;;21.25;12.18;;;13.00;99.90;;;;;;5096834;28;20020;-71
2023/05/16 03:28:06;;;;;;;22.58;11.75;;;13.10;99.90;;;;;;5097201;28;20024;-71
2023/05/16 03:30:32;;;;;;;22.38;12.00;;;13.20;99.90;;;;;;5097735;28;20021;-71
2023/05/16 03:32:57;;;;;;;19.60;11.95;;;13.30;99.90;;;;;;5096857;28;20110;-71
2023/05/16 03:35:23;;;;;;;26.65;14.23;;;13.40;99.90;;;;;;5096733;28;20020;-71
2023/05/16 03:37:49;;;;;;;20.98;12.20;;;13.30;99.90;;;;;;5097538;28;20029;-71
2023/05/16 03:40:14;;;;;;;25.05;12.57;;;13.40;99.90;;;;;;5097101;28;20111;-71
2023/05/16 03:42:40;;;;;;;24.02;12.20;;;13.40;99.90;;;;;;5097600;28;20160;-71
2023/05/16 03:45:06;;;;;;;24.10;13.13;;;13.50;99.90;;;;;;5097618;28;20051;-71
2023/05/16 03:47:32;;;;;;;25.77;12.20;;;13.40;99.90;;;;;;5096668;28;20065;-71
2023/05/16 03:49:57;;;;;;;23.90;13.50;;;13.50;99.90;;;;;;5096471;28;20119;-71
2023/05/16 03:52:23;;;;;;;25.58;12.50;;;13.50;99.90;;;;;;5096388;28;20023;-71
2023/05/16 03:54:49;;;;;;;24.63;12.02;;;13.40;99.90;;;;;;5097189;28;20031;-71
2023/05/16 03:57:15;;;;;;;24.60;12.50;;;13.40;99.90;;;;;;5096366;28;20055;-71
2023/05/16 03:59:41;;;;;;;20.10;11.10;;;13.30;99.90;;;;;;5096837;28;20024;-71
2023/05/16 04:02:06;;;;;;;20.42;11.73;;;13.30;99.90;;;;;;5096643;28;20024;-71
2023/05/16 04:04:32;;;;;;;23.13;12.63;;;13.20;99.90;;;;;;5096378;28;20032;-70
2023/05/16 04:06:57;;;;;;;21.95;11.27;;;13.30;99.90;;;;;;5096334;28;20024;-71
2023/05/16 04:09:23;;;;;;;26.15;13.20;;;13.20;99.90;;;;;;5096509;28;20020;-74
2023/05/16 04:11:48;;;;;;;24.67;12.00;;;13.20;99.90;;;;;;5096229;28;20114;-74
2023/05/16 04:14:14;;;;;;;28.55;12.70;;;13.20;99.90;;;;;;5096863;28;20111;-73
2023/05/16 04:16:40;;;;;;;23.70;13.10;;;13.20;99.90;;;;;;5096279;28;20020;-73
2023/05/16 04:19:06;;;;;;;26.13;11.85;;;13.30;99.90;;;;;;5097059;28;20047;-73
2023/05/16 04:21:32;;;;;;;22.25;11.55;;;13.20;99.90;;;;;;5097095;28;20024;-74
2023/05/16 04:23:58;;;;;;;23.33;11.27;;;13.00;99.90;;;;;;5100073;28;20028;-73
2023/05/16 04:26:23;;;;;;;16.95;9.57;;;12.80;99.90;;;;;;5100606;28;20031;-73
2023/05/16 04:28:49;;;;;;;17.73;8.68;;;12.70;99.90;;;;;;5100209;28;20024;-73
2023/05/16 04:31:15;;;;;;;15.55;7.65;;;12.60;99.90;;;;;;5100219;28;20031;-73
2023/05/16 04:33:41;;;;;;;14.93;7.63;;;12.40;99.90;;;;;;5100978;28;20020;-73
2023/05/16 04:36:06;;;;;;;11.60;6.72;;;12.40;99.90;;;;;;5100223;28;20016;-73
2023/05/16 04:38:32;;;;;;;10.80;6.28;;;12.40;99.90;;;;;;5100070;28;20108;-74
2023/05/16 04:40:58;;;;;;;10.20;6.20;;;12.20;99.90;;;;;;5101006;28;20105;-73
2023/05/16 04:43:23;;;;;;;12.02;6.30;;;12.30;99.90;;;;;;5100493;28;20028;-73
2023/05/16 04:45:49;;;;;;;9.23;5.30;;;12.40;99.90;;;;;;5099979;28;20054;-73
2023/05/16 04:48:16;;;;;;;8.90;5.38;;;12.30;99.90;;;;;;5100539;28;20028;-74
2023/05/16 04:50:41;;;;;;;11.23;5.55;;;12.30;99.90;;;;;;5099780;28;20028;-74
2023/05/16 04:53:07;;;;;;;10.13;6.20;;;12.30;99.90;;;;;;5099902;28;20030;-74
2023/05/16 04:55:32;;;;;;;13.20;6.10;;;12.40;99.90;;;;;;5100763;28;20028;-74
2023/05/16 04:57:58;;;;;;;10.10;5.97;;;12.40;99.90;;;;;;5100451;28;20055;-74
2023/05/16 05:00:24;;;;;;;14.82;7.25;;;12.50;99.90;;;;;;5100625;28;20031;-74
2023/05/16 05:02:49;;;;;;;10.63;5.50;;;12.30;99.90;;;;;;5100114;28;20053;-74
2023/05/16 05:05:15;;;;;;;8.20;5.28;;;12.30;99.90;;;;;;5099537;28;20110;-74
2023/05/16 05:07:40;;;;;;;14.90;5.35;;;12.20;99.90;;;;;;5100054;28;20028;-74
2023/05/16 05:10:07;;;;;;;9.48;5.53;;;12.30;99.90;;;;;;5099896;28;20050;-74
2023/05/16 05:12:34;;;;;;;11.32;5.85;;;12.30;99.90;;;;;;5099713;28;20031;-74
2023/05/16 05:14:59;;;;;;;12.63;5.38;;;12.30;99.90;;;;;;5099643;28;20024;-74
2023/05/16 05:17:25;;;;;;;10.27;5.35;;;12.40;99.90;;;;;;5099854;28;20085;-74
2023/05/16 05:19:51;;;;;;;11.45;5.82;;;12.40;99.90;;;;;;5100258;28;20028;-74
2023/05/16 05:22:16;;;;;;;10.30;6.03;;;12.30;99.90;;;;;;5099302;28;20065;-74
2023/05/16 05:24:42;;;;;;;11.75;5.55;;;12.40;99.90;;;;;;5099258;28;20050;-74
2023/05/16 05:27:07;;;;;;;11.73;6.40;;;12.40;99.90;;;;;;5099488;28;20031;-74
2023/05/16 05:29:33;;;;;;;13.05;6.07;;;12.50;99.90;;;;;;5101114;28;20020;-74
2023/05/16 05:31:58;;;;;;;12.55;5.80;;;12.40;99.90;;;;;;5100017;28;20028;-74
2023/05/16 05:34:24;;;;;;;11.52;5.68;;;12.40;99.90;;;;;;5098014;28;20031;-74
2023/05/16 05:36:50;;;;;;;9.70;5.30;;;12.40;99.90;;;;;;5099005;28;20016;-74
2023/05/16 05:39:15;;;;;;;10.20;4.80;;;12.50;99.90;;;;;;5099786;28;20020;-74
2023/05/16 05:41:41;;;;;;;8.05;5.22;;;12.50;99.90;;;;;;5099993;28;20032;-74
2023/05/16 05:44:06;;;;;;;11.02;5.68;;;12.50;99.90;;;;;;5099228;28;20101;-74
2023/05/16 05:46:32;;;;;;;9.73;4.38;;;12.60;99.90;;;;;;5099145;28;20068;-74
2023/05/16 05:48:59;;;;;;;9.80;4.57;;;12.40;99.90;;;;;;5099546;28;20036;-74
2023/05/16 05:51:24;;;;;;;9.70;4.82;;;12.50;99.90;;;;;;5098789;28;20107;-74
2023/05/16 05:53:51;;;;;;;13.45;4.85;;;12.60;99.90;;;;;;5098674;28;20044;-74
2023/05/16 05:56:17;;;;;;;8.25;4.70;;;12.50;99.90;;;;;;5098986;28;20020;-74
2023/05/16 05:58:42;;;;;;;8.57;4.28;;;12.50;99.90;;;;;;5098568;28;20031;-74
2023/05/16 06:01:10;;;;;;;6.65;3.70;;;12.50;99.90;;;;;;5098512;28;20061;-74
2023/05/16 06:03:35;;;;;;;5.30;2.95;;;12.50;99.90;;;;;;5098826;28;20054;-74
2023/05/16 06:06:01;;;;;;;7.75;3.42;;;12.40;99.90;;;;;;5098462;28;20028;-74
2023/05/16 06:08:26;;;;;;;6.07;4.00;;;12.50;99.90;;;;;;5098351;28;20024;-74
2023/05/16 06:10:52;;;;;;;4.32;2.92;;;12.60;99.90;;;;;;5099413;28;20024;-74
2023/05/16 06:13:17;;;;;;;4.22;2.70;;;12.60;99.90;;;;;;5098082;28;20024;-74
2023/05/16 06:15:43;;;;;;;6.25;2.78;;;12.60;99.90;;;;;;5154999;22;20032;-77
2023/05/16 06:18:08;;;;;;;4.25;2.60;;;12.70;99.90;;;;;;5139218;27;20027;-76
2023/05/16 06:20:34;;;;;;;4.15;2.92;;;12.70;99.90;;;;;;5139343;27;20034;-76
2023/05/16 06:23:00;;;;;;;7.07;2.72;;;12.60;99.90;;;;;;5139508;27;20042;-76
2023/05/16 06:25:25;;;;;;;2.78;2.28;;;12.70;99.90;;;;;;5123829;27;20053;-76
2023/05/16 06:27:51;;;;;;;2.85;1.85;;;12.70;99.90;;;;;;5118610;28;20103;-77
2023/05/16 06:30:16;;;;;;;3.10;1.25;;;12.70;99.90;;;;;;5118455;28;20016;-77
2023/05/16 06:32:42;;;;;;;1.63;1.00;;;12.70;99.90;;;;;;5119314;28;20024;-76
2023/05/16 06:35:08;;;;;;;1.15;0.95;;;12.70;99.90;;;;;;5118312;28;20073;-76
2023/05/16 06:37:34;;;;;;;2.33;0.90;;;12.60;99.90;;;;;;5118225;28;20027;-76
2023/05/16 06:40:00;;;;;;;1.33;0.85;;;12.30;99.90;;;;;;5118589;28;20028;-76
2023/05/16 06:42:25;;;;;;;2.72;0.73;;;12.20;99.90;;;;;;5119487;28;20019;-76
2023/05/16 06:44:51;;;;;;;4.05;0.60;;;12.00;99.90;;;;;;5117851;28;20080;-77
2023/05/16 06:47:16;;;;;;;3.22;0.63;;;11.70;99.90;;;;;;5118223;28;20114;-77
2023/05/16 06:49:42;;;;;;;2.20;0.65;;;11.60;99.90;;;;;;5118043;28;20111;-76
2023/05/16 06:52:07;;;;;;;2.75;0.75;;;11.50;99.90;;;;;;5118181;28;20072;-77
2023/05/16 06:54:33;;;;;;;1.58;0.80;;;11.30;99.90;;;;;;5119114;28;20020;-76
2023/05/16 06:56:59;;;;;;;0.95;0.65;;;11.20;99.90;;;;;;5119319;28;20026;-76
2023/05/16 06:59:25;;;;;;;1.33;0.80;;;11.40;99.90;;;;;;5119157;28;20020;-77
2023/05/16 07:01:50;;;;;;;0.88;0.65;;;11.30;99.90;;;;;;5118007;28;20033;-76
2023/05/16 07:04:16;;;;;;;2.25;1.20;;;11.30;99.90;;;;;;5118136;28;20019;-76
2023/05/16 07:06:42;;;;;;;0.70;0.40;;;11.40;99.90;;;;;;5118771;28;20019;-77
2023/05/16 07:09:07;;;;;;;1.92;0.70;;;11.50;99.90;;;;;;5117848;28;20028;-79
2023/05/16 07:11:33;;;;;;;2.88;0.70;;;11.30;99.90;;;;;;5118077;28;20023;-79
2023/05/16 07:13:58;;;;;;;1.20;0.60;;;11.40;99.90;;;;;;5119682;28;20040;-78
2023/05/16 07:16:27;;;;;;;1.10;0.75;;;11.40;99.90;;;;;;5119859;28;20110;-75
2023/05/16 07:18:52;;;;;;;6.38;0.80;;;11.60;99.90;;;;;;5117928;28;20024;-77
2023/05/16 07:21:18;;;;;;;3.08;0.82;;;11.50;99.90;;;;;;5118599;28;20039;-77
2023/05/16 07:23:44;;;;;;;0.77;0.70;;;11.50;99.90;;;;;;5117956;28;20023;-78
2023/05/16 07:26:09;;;;;;;2.17;0.90;;;11.70;99.90;;;;;;5117583;28;20050;-77
2023/05/16 07:28:35;;;;;;;2.53;0.85;;;11.80;99.90;;;;;;5118029;28;20020;-78
2023/05/16 07:31:00;;;;;;;1.40;0.80;;;11.80;99.90;;;;;;5118582;28;20031;-77
2023/05/16 07:33:26;;;;;;;4.75;1.00;;;12.00;99.90;;;;;;5118512;28;20024;-73
2023/05/16 07:35:52;;;;;;;1.80;0.93;;;12.00;99.90;;;;;;5118166;28;20019;-75
2023/05/16 07:38:20;;;;;;;2.35;0.88;;;12.00;99.90;;;;;;5117192;28;20019;-73
2023/05/16 07:40:45;;;;;;;3.63;1.25;;;12.00;99.90;;;;;;5117146;28;20047;-74
2023/05/16 07:43:11;;;;;;;3.63;1.40;;;12.00;99.90;;;;;;5117907;28;20016;-74
2023/05/16 07:45:36;;;;;;;2.60;1.10;;;12.10;99.90;;;;;;5117458;28;20115;-77
2023/05/16 07:48:02;;;;;;;4.18;0.80;;;12.10;99.90;;;;;;5118212;28;20072;-77
2023/05/16 07:50:27;;;;;;;3.47;1.30;;;12.10;99.90;;;;;;5124908;28;20026;-76
2023/05/16 07:52:53;;;;;;;2.90;1.15;;;12.10;99.90;;;;;;5117247;28;20076;-79
2023/05/16 07:55:20;;;;;;;11.50;1.92;;;12.10;99.90;;;;;;5117596;28;20023;-80
2023/05/16 07:57:47;;;;;;;2.60;1.27;;;12.10;99.90;;;;;;5116341;28;20023;-79
2023/05/16 08:00:13;;;;;;;4.20;1.55;;;12.20;99.90;;;;;;5117246;28;20016;-79
2023/05/16 08:02:39;;;;;;;5.35;1.67;;;12.20;99.90;;;;;;5116699;28;20032;-79
2023/05/16 08:05:06;;;;;;;3.67;1.30;;;12.20;99.90;;;;;;5117527;28;20076;-79
2023/05/16 08:07:32;;;;;;;7.13;1.60;;;12.30;99.90;;;;;;5117213;28;20164;-79
2023/05/16 08:09:57;;;;;;;7.38;1.30;;;12.20;99.90;;;;;;5116810;28;20031;-81
2023/05/16 08:12:23;;;;;;;2.72;1.45;;;12.20;99.90;;;;;;5117571;28;20028;-78
2023/05/16 08:14:49;;;;;;;4.68;1.45;;;12.20;99.90;;;;;;5117150;28;20034;-77
2023/05/16 08:17:15;;;;;;;8.27;1.83;;;12.10;99.90;;;;;;5117557;28;20024;-74
2023/05/16 08:19:40;;;;;;;7.60;1.70;;;12.20;99.90;;;;;;5117530;28;20023;-75
2023/05/16 08:22:07;;;;;;;6.90;1.90;;;12.10;99.90;;;;;;5116904;28;20027;-74
2023/05/16 08:24:33;;;;;;;3.83;1.23;;;12.10;99.90;;;;;;5116613;28;20076;-75
2023/05/16 08:26:59;;;;;;;4.60;1.48;;;12.10;99.90;;;;;;5117029;28;20118;-74
2023/05/16 08:29:25;;;;;;;4.97;1.20;;;12.10;99.90;;;;;;5116915;28;20020;-74
2023/05/16 08:31:51;;;;;;;3.00;1.17;;;12.20;99.90;;;;;;5116827;28;20031;-74
2023/05/16 08:34:16;;;;;;;11.82;2.05;;;12.20;99.90;;;;;;5116588;28;20019;-75
2023/05/16 08:36:42;;;;;;;8.25;1.60;;;12.20;99.90;;;;;;5116770;28;20026;-75
2023/05/16 08:39:10;;;;;;;2.65;1.20;;;12.40;99.90;;;;;;5117526;28;20107;-75
2023/05/16 08:41:36;;;;;;;5.78;1.63;;;12.60;99.90;;;;;;5117475;28;20022;-75
2023/05/16 08:44:01;;;;;;;3.65;1.52;;;12.70;99.90;;;;;;5117223;28;20020;-75
2023/05/16 08:46:27;;;;;;;5.13;1.60;;;12.90;99.90;;;;;;5116656;28;20114;-75
2023/05/16 08:48:57;;;;;;;5.10;2.13;;;12.90;99.90;;;;;;5116244;28;20030;-75
2023/05/16 08:51:24;;;;;;;6.35;1.13;;;13.10;99.90;;;;;;5116887;28;20016;-75
2023/05/16 08:53:59;;;;;;;9.32;1.05;;;13.10;99.90;;;;;;5116190;28;20051;-75
2023/05/16 08:56:25;;;;;;;4.60;1.35;;;13.20;99.90;;;;;;5117123;28;20054;-75
2023/05/16 08:58:53;;;;;;;4.38;1.30;;;13.20;99.90;;;;;;5116324;28;20015;-75
2023/05/16 09:01:20;;;;;;;4.38;1.38;;;13.30;99.90;;;;;;5117094;28;20024;-75
2023/05/16 09:03:47;;;;;;;4.95;1.20;;;13.40;99.90;;;;;;5116251;28;20118;-75
2023/05/16 09:06:13;;;;;;;4.85;1.10;;;13.40;99.90;;;;;;5116504;28;20092;-75
2023/05/16 09:08:38;;;;;;;4.03;1.10;;;13.40;99.90;;;;;;5117251;28;20027;-75
2023/05/16 09:11:04;;;;;;;7.85;1.58;;;13.30;99.90;;;;;;5119669;28;20038;-75
2023/05/16 09:13:29;;;;;;;9.13;1.60;;;13.30;99.90;;;;;;5119945;28;20032;-75
2023/05/16 09:16:24;;;;;;;8.35;1.52;;;13.30;99.90;;;;;;5119865;28;20019;-76
2023/05/16 09:18:55;;;;;;;4.68;1.77;;;13.20;99.90;;;;;;5061688;28;20024;-76
2023/05/16 09:21:22;;;;;;;8.80;2.22;;;13.20;99.90;;;;;;5078593;28;20033;-76
2023/05/16 09:23:49;;;;;;;4.55;1.40;;;13.20;99.90;;;;;;5078511;28;20029;-76
2023/05/16 09:26:15;;;;;;;4.93;1.27;;;13.00;99.90;;;;;;5078278;28;20078;-76
2023/05/16 09:28:41;;;;;;;4.22;1.40;;;13.10;99.90;;;;;;5078377;28;20029;-76
2023/05/16 09:31:26;;;;;;;3.92;1.48;;;13.20;99.90;;;;;;5078191;28;20050;-76
2023/05/16 09:33:55;;;;;;;8.68;1.58;;;13.40;99.90;;;;;;5078258;28;20119;-76
2023/05/16 09:36:20;;;;;;;2.67;1.30;;;13.50;99.90;;;;;;5062161;28;20040;-76
2023/05/16 09:38:46;;;;;;;4.22;1.38;;;13.60;99.90;;;;;;5061188;28;20020;-75
2023/05/16 09:41:12;;;;;;;4.57;1.30;;;13.60;99.90;;;;;;5061284;28;20025;-76
2023/05/16 09:43:40;;;;;;;11.18;2.10;;;13.60;99.90;;;;;;5061177;28;20058;-76
2023/05/16 09:46:05;;;;;;;9.77;1.60;;;13.80;99.90;;;;;;5061375;28;20109;-75
2023/05/16 09:48:31;;;;;;;3.13;1.05;;;13.90;99.90;;;;;;5061167;28;20036;-75
2023/05/16 09:51:02;;;;;;;9.10;1.33;;;13.90;99.90;;;;;;5061018;28;20028;-75
2023/05/16 09:53:30;;;;;;;7.55;1.05;;;13.90;99.90;;;;;;5061668;28;20050;-75
2023/05/16 09:56:00;;;;;;;13.23;1.25;;;14.00;99.90;;;;;;5111739;28;20056;-75
2023/05/16 09:58:30;;;;;;;4.25;0.95;;;14.00;99.90;;;;;;5119170;28;20023;-75
2023/05/16 10:00:56;;;;;;;5.88;1.23;;;14.10;99.90;;;;;;5119942;28;20020;-75
2023/05/16 10:03:23;;;;;;;3.65;1.08;;;14.20;99.90;;;;;;5118967;28;20020;-76
2023/05/16 10:05:49;;;;;;;4.72;1.17;;;14.40;99.90;;;;;;5119238;28;20032;-76
2023/05/16 10:08:15;;;;;;;7.57;1.40;;;14.40;99.90;;;;;;5118909;28;20027;-76
2023/05/16 10:10:41;;;;;;;5.72;1.30;;;14.60;99.90;;;;;;5119569;28;20156;-75
2023/05/16 10:13:09;;;;;;;7.28;1.38;;;14.70;99.90;;;;;;5119012;28;20069;-75
2023/05/16 10:15:36;;;;;;;5.10;1.27;;;14.90;99.90;;;;;;5119020;28;20023;-75
2023/05/16 10:18:04;;;;;;;5.70;1.33;;;14.90;99.90;;;;;;5118712;28;20114;-75
2023/05/16 10:20:30;;;;;;;7.90;1.27;;;14.90;99.90;;;;;;5118934;28;20057;-75
2023/05/16 10:22:57;;;;;;;5.88;1.15;;;15.10;99.90;;;;;;5118817;28;20024;-76
2023/05/16 10:25:36;;;;;;;2.25;1.08;;;15.10;99.90;;;;;;5119017;28;20027;-75
2023/05/16 10:28:03;;;;;;;7.60;0.90;;;15.00;99.90;;;;;;5119479;28;20027;-75
2023/05/16 10:30:30;;;;;;;5.25;1.05;;;14.90;99.90;;;;;;5118686;28;20024;-76
2023/05/16 10:32:56;;;;;;;5.10;1.58;;;14.70;99.90;;;;;;5118182;28;20027;-75
2023/05/16 10:35:22;;;;;;;4.95;0.80;;;14.70;99.90;;;;;;5119375;28;20019;-76
2023/05/16 10:37:49;;;;;;;6.35;1.20;;;14.60;99.90;;;;;;5118193;28;20027;-75
2023/05/16 10:40:16;;;;;;;3.53;0.88;;;14.80;99.90;;;;;;5119138;28;20016;-75
2023/05/16 10:43:00;;;;;;;5.68;1.00;;;15.30;99.90;;;;;;5118168;28;20069;-75
2023/05/16 10:45:26;;;;;;;5.68;1.13;;;15.90;99.90;;;;;;5118430;28;20070;-75
2023/05/16 10:47:53;;;;;;;3.95;1.10;;;16.50;99.90;;;;;;5118139;28;20038;-75
2023/05/16 10:50:44;;;;;;;4.25;0.90;;;16.80;99.90;;;;;;5118766;28;20031;-75
2023/05/16 10:53:13;;;;;;;8.38;1.33;;;17.10;99.90;;;;;;5118082;28;20028;-75
2023/05/16 10:55:39;;;;;;;7.20;2.28;;;17.00;99.90;;;;;;5117844;28;20039;-75
2023/05/16 10:58:05;;;;;;;1.48;0.80;;;17.10;99.90;;;;;;5118121;28;20023;-75
2023/05/16 11:00:30;;;;;;;2.83;0.70;;;17.20;99.90;;;;;;5118845;28;20020;-75
2023/05/16 11:03:18;;;;;;;2.85;0.70;;;17.50;99.90;;;;;;5118537;28;20157;-75
2023/05/16 11:05:51;;;;;;;4.88;1.05;;;17.70;99.90;;;;;;5118562;28;20035;-75
2023/05/16 11:08:16;;;;;;;4.60;1.42;;;17.90;99.90;;;;;;5117719;28;20028;-75
2023/05/16 11:10:42;;;;;;;7.82;1.70;;;18.40;99.90;;;;;;5118761;28;20031;-75
2023/05/16 11:13:07;;;;;;;4.88;0.95;;;18.50;99.90;;;;;;5117446;28;20020;-75
2023/05/16 11:15:33;;;;;;;5.90;1.35;;;18.80;99.90;;;;;;5117481;28;20051;-75
2023/05/16 11:18:15;;;;;;;5.15;1.20;;;18.60;99.90;;;;;;5118426;28;20028;-75
2023/05/16 11:20:41;;;;;;;4.78;1.02;;;18.40;99.90;;;;;;5117407;28;20027;-75
2023/05/16 11:23:16;;;;;;;2.83;1.27;;;18.00;99.90;;;;;;5117520;28;20024;-75
2023/05/16 11:25:44;;;;;;;7.38;1.30;;;17.60;99.90;;;;;;5117565;28;20024;-75
2023/05/16 11:28:12;;;;;;;6.28;1.27;;;17.60;99.90;;;;;;5118169;28;20023;-75
2023/05/16 11:30:43;;;;;;;3.28;0.80;;;17.90;99.90;;;;;;5117574;28;20024;-75
2023/05/16 11:33:08;;;;;;;3.95;0.82;;;18.50;99.90;;;;;;5117309;28;20106;-75
2023/05/16 11:35:34;;;;;;;2.65;0.88;;;18.60;99.90;;;;;;5117146;28;20051;-75
2023/05/16 11:37:59;;;;;;;3.72;1.00;;;18.50;99.90;;;;;;5117164;28;20020;-75
2023/05/16 11:40:26;;;;;;;2.92;0.90;;;18.30;99.10;;;;;;5117062;28;20020;-75
2023/05/16 11:42:51;;;;;;;2.70;0.77;;;18.00;99.90;;;;;;5117219;28;20023;-75
2023/05/16 11:45:20;;;;;;;3.25;1.10;;;18.40;99.90;;;;;;5117282;28;20021;-75
2023/05/16 11:47:47;;;;;;;4.22;0.88;;;19.00;99.90;;;;;;5117435;28;20028;-75
2023/05/16 11:50:18;;;;;;;10.77;1.40;;;19.30;98.60;;;;;;5117231;28;20027;-76
2023/05/16 11:52:47;;;;;;;4.70;1.52;;;19.40;97.30;;;;;;5116887;28;20024;-75
2023/05/16 11:55:14;;;;;;;4.20;0.88;;;19.10;97.70;;;;;;5117676;28;20172;-75
2023/05/16 11:57:43;;;;;;;3.45;1.00;;;18.80;98.80;;;;;;5116995;28;20023;-76
2023/05/16 12:00:19;;;;;;;5.40;0.70;;;18.60;99.90;;;;;;5117159;28;20026;-76
2023/05/16 12:02:48;;;;;;;3.72;1.25;;;18.90;99.70;;;;;;5117040;28;20031;-76
2023/05/16 12:05:16;;;;;;;5.35;0.85;;;19.50;98.30;;;;;;5116799;28;20027;-76
2023/05/16 12:07:46;;;;;;;3.08;0.90;;;19.40;96.50;;;;;;5117939;28;20051;-76
2023/05/16 12:10:16;;;;;;;5.00;1.23;;;19.20;96.60;;;;;;5116828;28;20055;-76
2023/05/16 12:12:43;;;;;;;3.80;1.02;;;19.30;97.10;;;;;;5116536;28;20059;-75
2023/05/16 12:15:10;;;;;;;3.53;0.98;;;19.50;95.10;;;;;;5117186;28;20035;-75
2023/05/16 12:17:37;;;;;;;4.82;0.95;;;19.40;95.40;;;;;;5116751;28;20027;-75
2023/05/16 12:20:10;;;;;;;4.00;0.90;;;19.00;96.40;;;;;;5116586;28;20024;-75
2023/05/16 12:22:38;;;;;;;2.58;1.08;;;18.60;97.50;;;;;;5116657;28;20061;-76
2023/05/16 12:25:30;;;;;;;3.90;0.90;;;18.20;95.60;;;;;;5117417;28;20019;-76
2023/05/16 12:28:01;;;;;;;3.65;0.88;;;18.80;94.30;;;;;;5117284;28;20024;-76
2023/05/16 12:30:28;;;;;;;2.80;0.90;;;19.30;94.70;;;;;;5116959;28;20047;-76
2023/05/16 12:33:11;;;;;;;3.88;0.93;;;19.50;94.30;;;;;;5117679;28;20031;-76
2023/05/16 12:35:39;;;;;;;4.38;0.80;;;19.10;92.80;;;;;;5116396;28;20031;-75
2023/05/16 12:38:06;;;;;;;3.80;1.10;;;18.50;95.70;;;;;;5117584;28;20031;-75
2023/05/16 12:40:32;;;;;;;5.18;1.10;;;18.40;95.50;;;;;;5117522;28;20053;-76